Terminal Aerodrome Forecast
Issued by NWS St Louis, MO

Home | Current Version | Previous Version | Text Only | Print | Product List | Glossary On
Versions: 1 2 3 4 5 6 7 8 9 10 11 12 13 14 15 16 17 18
000
FTUS43 KLSX 021737
TAFCOU
TAF
KCOU 021737Z 0218/0318 05008KT P6SM OVC015
      TEMPO 0218/0219 OVC008
     FM022100 04008KT P6SM SCT025 BKN120
     FM030500 04005KT 5SM BR FEW015 BKN100
     FM030900 03005KT 2SM BR OVC012
     FM031600 05005KT P6SM SCT025 BKN120=

USA.gov is the U.S. government's official web portal to all federal, state and local government web resources and services.